Αναφορές METAR από Ελληνικά Αεροδρόμια

Σε αυτή τη σελίδα, μπορείτε να παρακολουθείτε τις αναφορές METAR που προέρχονται από τα κυριότερα αεροδρόμια της Ελλάδας. Το περιεχόμενο αποκωδικοποιείται, οπτικοποιείται και γίνεται κατανοητό από τον καθένα με τη χρήση του όμορφου δίγλωσσου γραφικού περιβάλλοντος του meteothes.gr!

Η αρχική κωδικοποιημένη αναφορά, συμπεριλαμβάνεται επίσης στο κάτω μέρος. Σε όποια καθεστερεί η ενημέρωση, το προειδοποιητικό μήνυμα "Μη ενημερωμένο METAR!" εμφανίζεται στο πάνω μέρος της με κόκκινα γράμματα.

Εχουν προστεθεί επίσης δύο αεροδρόμια από γειτονικές χώρες, την Οχρίδα(ΠΓΔΜ) και την Σόφια(Βουλγαρία) για να ελέγχουμε την εξέλιξη των ψυχρών εισβολών από τα Βόρεια!

LGTS - Thessaloniki/Makedonia-Elev 7m
Απόσταση από meteothes.gr: Ν 13km
Ενημερώθηκε: 10/05/2021 08:20
Διάσπαρτα Nέφη
Διάσπαρτα Nέφη
 Ανεμος από Α
Ανεμος: Α 7 km/h
Θερμοκρασία: 15°C
Σημ. Δρόσου: 9°C
Υγρασία: 68%
Βαρόμετρο: 1024 hPa
Νέφωση: Διάσπαρτα Nέφη
Ορατότητα: 10 km
Λεπτομέρειες Νεφών: Διάσπαρτα Nέφη 914 m
2021/05/10 05:20 LGTS 100520Z 10004KT 9999 FEW030 15/09 Q1024 NOSIG
LGAV - Athens/Elef. Venizelos-Elev 94m
Απόσταση από meteothes.gr: ΝΝΑ 312km
Ενημερώθηκε: 10/05/2021 08:20
Αίθριος
Αίθριος
 Ανεμος από ΒΒΑ
Ανεμος: ΒΒΑ 39 km/h, Ριπή: 57 km/h
Θερμοκρασία: 17°C
Σημ. Δρόσου: 4°C
Υγρασία: 42%
Βαρόμετρο: 1020 hPa
Συνθήκες: Αίθριος
Ορατότητα: πάνω από 10 km
2021/05/10 05:20 LGAV 100520Z 02021G31KT CAVOK 17/04 Q1020 NOSIG
 
LGAL - Alexandroupolis-Elev 3m
Απόσταση από meteothes.gr: Α 251km
Ενημερώθηκε: 10/05/2021 08:20
Αίθριος
Αίθριος
 Ανεμος από ΒΒΑ
Ανεμος: ΒΒΑ 19 km/h
Θερμοκρασία: 12°C
Σημ. Δρόσου: 10°C
Υγρασία: 88%
Βαρόμετρο: 1024 hPa
Συνθήκες: Αίθριος
Ορατότητα: πάνω από 10 km
2021/05/10 05:20 LGAL 100520Z 02010KT CAVOK 12/10 Q1024
LGKV - Kavala/Crysoupolis-Elev 5m
Απόσταση από meteothes.gr: ΑΒΑ 144km
Ενημερώθηκε: 10/05/2021 08:20
Αίθριος
Αίθριος
 Ανεμος από ΑΒΑ
Ανεμος: ΑΒΑ 6 km/h
Θερμοκρασία: 12°C
Σημ. Δρόσου: 6°C
Υγρασία: 67%
Βαρόμετρο: 1024 hPa
Συνθήκες: Αίθριος
Ορατότητα: πάνω από 10 km
2021/05/10 05:20 LGKV 100520Z 07003KT CAVOK 12/06 Q1024
 
LGSK - Skiathos Island-Elev 15m
Απόσταση από meteothes.gr: ΝΝΑ 168km
Ενημερώθηκε: 09/05/2021 12:50
ΜΗ Ενημερωμένο METAR!
Διάσπαρτα Nέφη
Διάσπαρτα Nέφη
 Ανεμος από ΒΒΑ
Ανεμος: ΒΒΑ 22 km/h
Θερμοκρασία: 19°C
Σημ. Δρόσου: 12°C
Υγρασία: 64%
Βαρόμετρο: 1024 hPa
Νέφωση: Διάσπαρτα Nέφη
Ορατότητα: 10 km
Λεπτομέρειες Νεφών: Διάσπαρτα Nέφη 610 m
2021/05/09 09:50 LGSK 090950Z 02012KT 9999 FEW020 19/12 Q1024
LGLM - Limnos Island-Elev 5m
Απόσταση από meteothes.gr: ΑΝΑ 210km
Ενημερώθηκε: 10/05/2021 08:20
Αίθριος
Αίθριος
 Ανεμος από ΒΑ
Ανεμος: ΒΑ 26 km/h, Ριπή: 44 km/h
Θερμοκρασία: 14°C
Σημ. Δρόσου: 7°C
Υγρασία: 63%
Βαρόμετρο: 1024 hPa
Συνθήκες: Αίθριος
Ορατότητα: πάνω από 10 km
2021/05/10 05:20 LGLM 100520Z 04014G24KT CAVOK 14/07 Q1024
 
LGMT - Mitilini Island-Elev 17m
Απόσταση από meteothes.gr: ΑΝΑ 358km
Ενημερώθηκε: 10/05/2021 08:20
Αίθριος
Αίθριος
 Ανεμος από ΒΒΔ
Ανεμος: ΒΒΔ 15 km/h
Θερμοκρασία: 15°C
Σημ. Δρόσου: 6°C
Υγρασία: 55%
Βαρόμετρο: 1020 hPa
Συνθήκες: Αίθριος
Ορατότητα: πάνω από 10 km
2021/05/10 05:20 LGMT 100520Z 33008KT CAVOK 15/06 Q1020
LGSY - Skiros Island-Elev 15m
Απόσταση από meteothes.gr: ΝΑ 227km
Ενημερώθηκε: 10/05/2021 07:50
Αίθριος
Αίθριος
 Ανεμος από Β
Ανεμος: Β 30 km/h
Θερμοκρασία: 15°C
Σημ. Δρόσου: 11°C
Υγρασία: 77%
Βαρόμετρο: 1022 hPa
Συνθήκες: Αίθριος
Ορατότητα: πάνω από 10 km
2021/05/10 04:50 LGSY 100450Z 36016KT CAVOK 15/11 Q1022 BLU
 
LGKZ - Kozani-Elev 628m
Απόσταση από meteothes.gr: ΔΝΔ 102km
Ενημερώθηκε: 10/05/2021 07:50
Κυρίως νεφελώδης
Κυρίως νεφελώδης
 Ανεμος από άπνοια
Ανεμος: άπνοια
Θερμοκρασία: 10°C
Σημ. Δρόσου: 8°C
Υγρασία: 88%
Βαρόμετρο: 1024 hPa
Νέφωση: Κυρίως νεφελώδης
Ορατότητα: 10 km
Λεπτομέρειες Νεφών: Διάσπαρτα Nέφη 122 m
Μερικώς νεφελώδης 762 m
Κυρίως νεφελώδης 2134 m
2021/05/10 04:50 LGKZ 100450Z 00000KT 9999 FEW004 SCT025 BKN070 10/08 Q1024
LGIO - Ioannina-Elev 476m
Απόσταση από meteothes.gr: ΔΝΔ 209km
Ενημερώθηκε: 10/05/2021 02:20
ΜΗ Ενημερωμένο METAR!

 Ανεμος από μεταβλητός
Ανεμος: μεταβλητός 2 km/h
Θερμοκρασία: 13°C
Σημ. Δρόσου: 10°C
Υγρασία: 82%
Βαρόμετρο: 1021 hPa
2021/05/09 23:20 LGIO 092320Z AUTO VRB01KT //// // ////// 13/10 Q1021 RE//
 
LGZA - Zakinthos-Elev 3m
Απόσταση από meteothes.gr: ΝΝΔ 367km
Ενημερώθηκε: 10/05/2021 07:50
Αίθριος
Αίθριος
 Ανεμος από ΒΒΔ
Ανεμος: ΒΒΔ 11 km/h
Θερμοκρασία: 17°C
Σημ. Δρόσου: 13°C
Υγρασία: 77%
Βαρόμετρο: 1019 hPa
Συνθήκες: Αίθριος
Ορατότητα: πάνω από 10 km
2021/05/10 04:50 LGZA 100450Z 33006KT CAVOK 17/13 Q1019
LGKR - Corfu Island-Elev 2m
Απόσταση από meteothes.gr: ΔΝΔ 282km
Ενημερώθηκε: 10/05/2021 08:20
Αίθριος
Αίθριος
 Ανεμος από άπνοια
Ανεμος: άπνοια
Θερμοκρασία: 18°C
Σημ. Δρόσου: 16°C
Υγρασία: 88%
Βαρόμετρο: 1019 hPa
Συνθήκες: Αίθριος
Ορατότητα: πάνω από 10 km
2021/05/10 05:20 LGKR 100520Z 00000KT CAVOK 18/16 Q1019 NOSIG
 
LGSO - Syros Island-Elev 72m
Απόσταση από meteothes.gr: ΝΝΑ 397km
Ενημερώθηκε: 10/05/2021 07:50
Αίθριος
Αίθριος
 Ανεμος από ΒΒΑ
Ανεμος: ΒΒΑ 41 km/h, Ριπή: 59 km/h
Θερμοκρασία: 16°C
Σημ. Δρόσου: 9°C
Υγρασία: 63%
Βαρόμετρο: 1017 hPa
Συνθήκες: Αίθριος
Ορατότητα: πάνω από 10 km
2021/05/10 04:50 LGSO 100450Z 02022G32KT CAVOK 16/09 Q1017
LGMK - Mikonos Island-Elev 123m
Απόσταση από meteothes.gr: ΝΝΑ 412km
Ενημερώθηκε: 10/05/2021 08:20
Αίθριος
Αίθριος
 Ανεμος από Β
Ανεμος: Β 50 km/h, Ριπή: 70 km/h
Θερμοκρασία: 17°C
Σημ. Δρόσου: 9°C
Υγρασία: 59%
Βαρόμετρο: 1016 hPa
Συνθήκες: Αίθριος
Ορατότητα: πάνω από 10 km
2021/05/10 05:20 LGMK 100520Z 36027G38KT CAVOK 17/09 Q1016
 
LGSR - Santorini Island-Elev 40m
Απόσταση από meteothes.gr: ΝΝΑ 520km
Ενημερώθηκε: 10/05/2021 07:50
Αίθριος
Αίθριος
 Ανεμος από Β
Ανεμος: Β 41 km/h
Θερμοκρασία: 17°C
Σημ. Δρόσου: 11°C
Υγρασία: 68%
Βαρόμετρο: 1016 hPa
Συνθήκες: Αίθριος
Ορατότητα: πάνω από 10 km
2021/05/10 04:50 LGSR 100450Z 35022KT CAVOK 17/11 Q1016
LGKL - Kalamata-Elev 8m
Απόσταση από meteothes.gr: Ν 405km
Ενημερώθηκε: 10/05/2021 08:20
Αίθριος
Αίθριος
 Ανεμος από άπνοια
Ανεμος: άπνοια
Θερμοκρασία: 16°C
Σημ. Δρόσου: 8°C
Υγρασία: 59%
Βαρόμετρο: 1019 hPa
Συνθήκες: Αίθριος
Ορατότητα: πάνω από 10 km
2021/05/10 05:20 LGKL 100520Z 00000KT CAVOK 16/08 Q1019
 
LGIR - Iraklion/Crete-Elev 5m
Απόσταση από meteothes.gr: ΝΝΑ 622km
Ενημερώθηκε: 10/05/2021 08:20
Μερικώς νεφελώδης
Μερικώς νεφελώδης
 Ανεμος από ΔΒΔ
Ανεμος: ΔΒΔ 31 km/h
Θερμοκρασία: 17°C
Σημ. Δρόσου: 14°C
Υγρασία: 83%
Βαρόμετρο: 1017 hPa
Νέφωση: Μερικώς νεφελώδης
Ορατότητα: 10 km
Λεπτομέρειες Νεφών: Μερικώς νεφελώδης 610 m
2021/05/10 05:20 LGIR 100520Z 29017KT 9999 SCT020 17/14 Q1017 NOSIG
LGRP - Rhodes-Elev 5m
Απόσταση από meteothes.gr: ΝΑ 649km
Ενημερώθηκε: 10/05/2021 08:20
Αίθριος
Αίθριος
 Ανεμος από ΝΔ
Ανεμος: ΝΔ 15 km/h
Θερμοκρασία: 20°C
Σημ. Δρόσου: 10°C
Υγρασία: 53%
Βαρόμετρο: 1011 hPa
Συνθήκες: Αίθριος
Ορατότητα: πάνω από 10 km
2021/05/10 05:20 LGRP 100520Z 22008KT CAVOK 20/10 Q1011 NOSIG
 
LWOH - Ohrid/FYROM-Elev 761m
Απόσταση από meteothes.gr: ΔΒΔ 188km
Ενημερώθηκε: 09/05/2021 16:30
ΜΗ Ενημερωμένο METAR!
Αίθριος
Αίθριος
 Ανεμος από Ν
Ανεμος: Ν 7 km/h
Θερμοκρασία: 21°C
Σημ. Δρόσου: 7°C
Υγρασία: 40%
Βαρόμετρο: 1021 hPa
Συνθήκες: Αίθριος
Ορατότητα: πάνω από 10 km
2021/05/09 13:30 LWOH 091330Z 17004KT CAVOK 21/07 Q1021
LBSF - Sofia/Bulgaria-Elev 595m
Απόσταση από meteothes.gr: Β 227km
Ενημερώθηκε: 10/05/2021 08:00
Αίθριος
Αίθριος
 Ανεμος από ΑΝΑ
Ανεμος: ΑΝΑ 15 km/h
Θερμοκρασία: 9°C
Αίσθηση Ψύχρας: 7°C
Σημ. Δρόσου: 4°C
Υγρασία: 71%
Βαρόμετρο: 1025 hPa
Συνθήκες: Αίθριος
Ορατότητα: πάνω από 10 km
2021/05/10 05:00 LBSF 100500Z 11008KT CAVOK 09/04 Q1025 NOSIG

(*) Μερικές αναφορές παρουσιάζουν λιγότερα στοιχεία γιατί οι αρχικές είναι ελλιπείς ή έχουν λάθος μορφοποίηση!